MiSS Christi — WBM6513 — position and weather

sailwx.info

Track history (hours):
 
Tides and Currents Weather Stations Pressure Air Temp Water Temp Dewpoint Dewpoint Depression Visibility Wind Speed Wind Dir Waves Ship Positions

MiSS Christi

Owner: MISS CHRISTI INC, WEST HILLS, CA. More information available from US FCC via Universal Licensing System and Coast Guard Vessel Documentation Center.

Last reported at 2017-Apr-25 19:49 UTC. Time now 2017-Apr-27 22:32 UTC.
Position N 33°44' W 118°16'.

Length 15 m; draft 1.5 m.

Type: Passenger vessel. MMSI: 367311590.

Date/timePositionNaut miles runAvg speedWind from/ knotsBaromVisibWave heightAir tempDewpointWater temp
2017-Apr-25 19:49N 33°44' W 118°16'3 8.4
2017-Apr-25 19:30N 33°42' W 118°16'917.7
2017-Apr-25 19:00N 33°35' W 118°22'917.8
2017-Apr-25 18:30N 33°28' W 118°29'1 0.3
2017-Apr-25 16:14N 33°27' W 118°29'516.6
2017-Apr-25 15:58N 33°30' W 118°25'916.8
2017-Apr-25 15:27N 33°37' W 118°19'712.7
2017-Apr-25 14:52N 33°44' W 118°16'0 0.6
2017-Apr-25 14:29N 33°44' W 118°16'0 0.0
2017-Apr-23 22:24N 33°44' W 118°16'511.2
2017-Apr-23 22:00N 33°40' W 118°17'1116.5
2017-Apr-23 21:19N 33°31' W 118°25'4 0.2
2017-Apr-23 01:32N 33°28' W 118°28'117.0
2017-Apr-23 01:30N 33°28' W 118°28'917.4
2017-Apr-23 01:00N 33°35' W 118°21'917.5
2017-Apr-23 00:31N 33°42' W 118°15'2 4.7
2017-Apr-23 00:00N 33°44' W 118°16'510.5
2017-Apr-22 23:31N 33°39' W 118°18'1216.8
2017-Apr-22 22:49N 33°30' W 118°26'2 0.1
2017-Apr-21 22:33N 33°29' W 118°27'116.2
2017-Apr-21 22:30N 33°29' W 118°27'916.3
2017-Apr-21 21:59N 33°36' W 118°21'816.5
2017-Apr-21 21:30N 33°42' W 118°15'2 4.1
2017-Apr-21 21:00N 33°44' W 118°16'5 9.4
2017-Apr-21 20:30N 33°40' W 118°17'917.5
2017-Apr-21 20:00N 33°33' W 118°24'813.7
2017-Apr-21 19:28N 33°27' W 118°29'0 0.0
2017-Apr-21 16:41N 33°27' W 118°29'210.8
2017-Apr-21 16:31N 33°28' W 118°28'815.8
2017-Apr-21 15:59N 33°35' W 118°22'815.9
2017-Apr-21 15:30N 33°41' W 118°16'3 6.0
2017-Apr-21 14:59N 33°44' W 118°16'0 0.0
2017-Apr-21 14:21N 33°44' W 118°16'0 0.0
2017-Apr-21 00:07N 33°44' W 118°16'0 0.4
2017-Apr-21 00:00N 33°44' W 118°16'4 8.0
2017-Apr-20 23:31N 33°40' W 118°17'816.3
2017-Apr-20 23:01N 33°34' W 118°23'9 1.4
2017-Apr-20 16:50N 33°27' W 118°29'18 9.4
2017-Apr-20 14:56N 33°41' W 118°16'3 5.9
2017-Apr-20 14:24N 33°44' W 118°16'0 0.0
2017-Apr-19 23:56N 33°44' W 118°16'510.9
2017-Apr-19 23:30N 33°39' W 118°17'916.7
2017-Apr-19 22:59N 33°33' W 118°23'7 0.2
2017-Apr-18 15:57N 33°27' W 118°29'0 0.0
2017-Apr-17 15:57N 33°27' W 118°29'1616.6
2017-Apr-17 14:59N 33°40' W 118°17'4 9.4
2017-Apr-17 14:30N 33°44' W 118°16'0 0.0
2017-Apr-15 22:49N 33°44' W 118°16'2 7.3
2017-Apr-15 22:31N 33°42' W 118°15'1017.7
2017-Apr-15 21:58N 33°35' W 118°23'817.5
2017-Apr-15 21:30N 33°28' W 118°28'  
Track history (hours):
 
Tides and Currents Weather Stations Pressure Air Temp Water Temp Dewpoint Dewpoint Depression Visibility Wind Speed Wind Dir Waves Ship Positions

MiSS Christi

Owner: MISS CHRISTI INC, WEST HILLS, CA. More information available from US FCC via Universal Licensing System and Coast Guard Vessel Documentation Center.

Last reported at 2017-Apr-25 19:49 UTC. Time now 2017-Apr-27 22:32 UTC.
Position N 33°44' W 118°16'.

Length 15 m; draft 1.5 m.

Type: Passenger vessel. MMSI: 367311590.

Date/timePositionNaut miles runAvg speedWind from/ knotsBaromVisibWave heightAir tempDewpointWater temp
2017-Apr-25 19:49N 33°44' W 118°16'3 8.4
2017-Apr-25 19:30N 33°42' W 118°16'917.7
2017-Apr-25 19:00N 33°35' W 118°22'917.8
2017-Apr-25 18:30N 33°28' W 118°29'1 0.3
2017-Apr-25 16:14N 33°27' W 118°29'516.6
2017-Apr-25 15:58N 33°30' W 118°25'916.8
2017-Apr-25 15:27N 33°37' W 118°19'712.7
2017-Apr-25 14:52N 33°44' W 118°16'0 0.6
2017-Apr-25 14:29N 33°44' W 118°16'0 0.0
2017-Apr-23 22:24N 33°44' W 118°16'511.2
2017-Apr-23 22:00N 33°40' W 118°17'1116.5
2017-Apr-23 21:19N 33°31' W 118°25'4 0.2
2017-Apr-23 01:32N 33°28' W 118°28'117.0
2017-Apr-23 01:30N 33°28' W 118°28'917.4
2017-Apr-23 01:00N 33°35' W 118°21'917.5
2017-Apr-23 00:31N 33°42' W 118°15'2 4.7
2017-Apr-23 00:00N 33°44' W 118°16'510.5
2017-Apr-22 23:31N 33°39' W 118°18'1216.8
2017-Apr-22 22:49N 33°30' W 118°26'2 0.1
2017-Apr-21 22:33N 33°29' W 118°27'116.2
2017-Apr-21 22:30N 33°29' W 118°27'916.3
2017-Apr-21 21:59N 33°36' W 118°21'816.5
2017-Apr-21 21:30N 33°42' W 118°15'2 4.1
2017-Apr-21 21:00N 33°44' W 118°16'5 9.4
2017-Apr-21 20:30N 33°40' W 118°17'917.5
2017-Apr-21 20:00N 33°33' W 118°24'813.7
2017-Apr-21 19:28N 33°27' W 118°29'0 0.0
2017-Apr-21 16:41N 33°27' W 118°29'210.8
2017-Apr-21 16:31N 33°28' W 118°28'815.8
2017-Apr-21 15:59N 33°35' W 118°22'815.9
2017-Apr-21 15:30N 33°41' W 118°16'3 6.0
2017-Apr-21 14:59N 33°44' W 118°16'0 0.0
2017-Apr-21 14:21N 33°44' W 118°16'0 0.0
2017-Apr-21 00:07N 33°44' W 118°16'0 0.4
2017-Apr-21 00:00N 33°44' W 118°16'4 8.0
2017-Apr-20 23:31N 33°40' W 118°17'816.3
2017-Apr-20 23:01N 33°34' W 118°23'9 1.4
2017-Apr-20 16:50N 33°27' W 118°29'18 9.4
2017-Apr-20 14:56N 33°41' W 118°16'3 5.9
2017-Apr-20 14:24N 33°44' W 118°16'0 0.0
2017-Apr-19 23:56N 33°44' W 118°16'510.9
2017-Apr-19 23:30N 33°39' W 118°17'916.7
2017-Apr-19 22:59N 33°33' W 118°23'7 0.2
2017-Apr-18 15:57N 33°27' W 118°29'0 0.0
2017-Apr-17 15:57N 33°27' W 118°29'1616.6
2017-Apr-17 14:59N 33°40' W 118°17'4 9.4
2017-Apr-17 14:30N 33°44' W 118°16'0 0.0
2017-Apr-15 22:49N 33°44' W 118°16'2 7.3
2017-Apr-15 22:31N 33°42' W 118°15'1017.7
2017-Apr-15 21:58N 33°35' W 118°23'817.5
2017-Apr-15 21:30N 33°28' W 118°28'  

Dump ship's entire track history